createdAt,value
2018-12-27T00:00:48.516Z,56.03
2018-12-27T00:03:39.098Z,56.04
2018-12-27T00:06:32.685Z,56.41
2018-12-27T00:09:23.228Z,56.45
2018-12-27T00:12:13.812Z,56.92
2018-12-27T00:15:05.335Z,58.13
2018-12-27T00:17:55.756Z,58.99
2018-12-27T00:20:46.300Z,59.96
2018-12-27T00:23:36.861Z,61.33
2018-12-27T00:26:27.146Z,61.87
2018-12-27T00:29:17.843Z,62.76
2018-12-27T00:32:08.794Z,63.78
2018-12-27T00:34:59.640Z,65.44
2018-12-27T00:37:50.434Z,66.25
2018-12-27T00:40:41.310Z,70.08
2018-12-27T00:43:32.203Z,71.69
2018-12-27T00:46:23.090Z,72.99
2018-12-27T00:49:14.175Z,74.39
2018-12-27T00:52:05.535Z,76.87
2018-12-27T00:54:56.426Z,77.12
2018-12-27T00:57:47.342Z,77.18
2018-12-27T01:00:37.970Z,80.08
2018-12-27T01:03:28.808Z,82.94
2018-12-27T01:06:19.450Z,83.63
2018-12-27T01:09:10.198Z,83.47
2018-12-27T01:12:00.834Z,86.68
2018-12-27T01:14:51.977Z,88.52
2018-12-27T01:17:42.969Z,94.10
2018-12-27T01:20:33.740Z,96.21
2018-12-27T01:23:24.392Z,98.36
2018-12-27T01:26:15.201Z,100.00
2018-12-27T01:29:06.419Z,100.00
2018-12-27T01:31:57.591Z,95.66
2018-12-27T01:34:48.514Z,97.24
2018-12-27T01:37:39.469Z,96.26
2018-12-27T01:40:30.545Z,94.07
2018-12-27T01:43:21.805Z,93.00
2018-12-27T01:46:12.894Z,90.49
2018-12-27T01:49:03.676Z,87.25
2018-12-27T01:51:54.261Z,86.15
2018-12-27T01:54:45.545Z,84.65
2018-12-27T01:57:36.135Z,88.26
2018-12-27T02:00:27.186Z,88.54
2018-12-27T02:03:18.275Z,86.19
2018-12-27T02:06:09.330Z,84.79
2018-12-27T02:08:59.898Z,87.75
2018-12-27T02:11:50.423Z,88.72
2018-12-27T02:14:41.301Z,88.78
2018-12-27T02:17:32.126Z,86.49
2018-12-27T02:20:23.329Z,85.35
2018-12-27T02:23:14.547Z,79.49
2018-12-27T02:26:07.330Z,72.86
2018-12-27T02:28:58.511Z,67.92
2018-12-27T02:31:49.208Z,63.35
2018-12-27T02:34:40.538Z,61.59
2018-12-27T02:37:32.772Z,60.54
2018-12-27T02:40:23.671Z,61.61
2018-12-27T02:43:14.362Z,61.99
2018-12-27T02:46:05.078Z,64.48
2018-12-27T02:48:55.699Z,67.01
2018-12-27T02:51:46.574Z,68.48
2018-12-27T02:54:37.140Z,68.43
2018-12-27T02:57:28.214Z,67.03
2018-12-27T03:00:19.061Z,67.88
2018-12-27T03:03:10.159Z,65.71
2018-12-27T03:06:00.754Z,67.79
2018-12-27T03:08:51.634Z,68.34
2018-12-27T03:11:42.490Z,67.70
2018-12-27T03:14:33.588Z,72.92
2018-12-27T03:17:24.380Z,75.16
2018-12-27T03:20:15.163Z,74.35
2018-12-27T03:23:06.019Z,76.78
2018-12-27T03:25:56.702Z,74.37
2018-12-27T03:28:47.308Z,74.64
2018-12-27T03:31:38.335Z,74.47
2018-12-27T03:34:29.265Z,73.84
2018-12-27T03:37:20.304Z,74.48
2018-12-27T03:40:10.718Z,75.18
2018-12-27T03:43:01.750Z,77.45
2018-12-27T03:45:52.670Z,76.95
2018-12-27T03:48:43.765Z,78.13
2018-12-27T03:51:34.486Z,80.38
2018-12-27T03:54:25.428Z,81.39
2018-12-27T03:57:16.046Z,82.34
2018-12-27T04:00:07.171Z,83.07
2018-12-27T04:02:58.215Z,85.32
2018-12-27T04:05:49.458Z,83.93
2018-12-27T04:08:40.317Z,86.43
2018-12-27T04:11:31.365Z,89.97
2018-12-27T04:14:22.178Z,87.48
2018-12-27T04:17:15.433Z,87.55
2018-12-27T04:20:05.914Z,85.72
2018-12-27T04:22:56.568Z,89.17
2018-12-27T04:25:47.206Z,85.78
2018-12-27T04:28:37.757Z,87.50
2018-12-27T04:31:28.010Z,90.07
2018-12-27T04:34:18.678Z,92.75
2018-12-27T04:37:08.917Z,96.04
2018-12-27T04:39:59.383Z,97.93
2018-12-27T04:42:50.103Z,96.54
2018-12-27T04:45:41.239Z,96.42
2018-12-27T04:48:31.923Z,100.00
2018-12-27T04:51:22.606Z,100.00
2018-12-27T04:54:13.183Z,100.00
2018-12-27T04:57:03.836Z,100.00
2018-12-27T04:59:54.435Z,100.00
2018-12-27T05:02:45.302Z,96.87
2018-12-27T05:05:35.811Z,92.69
2018-12-27T05:08:26.449Z,86.89
2018-12-27T05:11:17.302Z,84.63
2018-12-27T05:14:07.991Z,79.24
2018-12-27T05:16:58.317Z,74.75
2018-12-27T05:19:49.190Z,70.19
2018-12-27T05:22:39.892Z,70.13
2018-12-27T05:25:30.742Z,69.30
2018-12-27T05:28:21.419Z,67.94
2018-12-27T05:31:12.105Z,68.27
2018-12-27T05:34:02.651Z,69.62
2018-12-27T05:36:53.074Z,67.81
2018-12-27T05:39:43.723Z,70.57
2018-12-27T05:42:34.277Z,70.25
2018-12-27T05:45:24.883Z,70.59
2018-12-27T05:48:15.633Z,71.79
2018-12-27T05:51:08.025Z,71.86
2018-12-27T05:53:58.727Z,75.83
2018-12-27T05:56:48.918Z,77.55
2018-12-27T05:59:39.506Z,79.74
2018-12-27T06:02:30.084Z,80.56
2018-12-27T06:05:22.134Z,83.91
2018-12-27T06:08:12.657Z,85.35
2018-12-27T06:11:03.381Z,83.91
2018-12-27T06:13:53.569Z,84.99
2018-12-27T06:16:46.665Z,82.71
2018-12-27T06:19:37.343Z,80.70
2018-12-27T06:22:27.698Z,79.00
2018-12-27T06:25:18.207Z,75.21
2018-12-27T06:28:08.854Z,71.89
2018-12-27T06:30:59.244Z,66.89
2018-12-27T06:33:49.830Z,62.99
2018-12-27T06:36:40.100Z,61.51
2018-12-27T06:39:30.772Z,55.20
2018-12-27T06:42:24.041Z,51.30
2018-12-27T06:45:14.574Z,47.69
2018-12-27T06:48:05.220Z,45.16
2018-12-27T06:50:56.198Z,44.00
2018-12-27T06:53:46.630Z,42.67
2018-12-27T06:56:36.795Z,41.54
2018-12-27T06:59:27.646Z,40.72
2018-12-27T07:02:18.353Z,39.07
2018-12-27T07:05:08.917Z,38.14
2018-12-27T07:07:59.541Z,37.09
2018-12-27T07:10:50.162Z,36.19
2018-12-27T07:13:40.693Z,34.95
2018-12-27T07:16:31.128Z,33.75
2018-12-27T07:19:21.777Z,31.98
2018-12-27T07:22:12.523Z,31.07
2018-12-27T07:25:02.975Z,30.02
2018-12-27T07:27:53.504Z,28.15
2018-12-27T07:30:44.203Z,28.15
2018-12-27T07:33:34.997Z,27.70
2018-12-27T07:36:25.510Z,27.30
2018-12-27T07:39:15.953Z,28.64
2018-12-27T07:42:06.367Z,27.87
2018-12-27T07:44:56.801Z,29.80
2018-12-27T07:47:47.409Z,29.80
2018-12-27T07:50:38.041Z,30.06
2018-12-27T07:53:28.967Z,30.45
2018-12-27T07:56:19.487Z,30.28
2018-12-27T07:59:10.953Z,30.80
2018-12-27T08:02:01.940Z,31.26
2018-12-27T08:04:52.899Z,32.72
2018-12-27T08:07:43.388Z,34.79
2018-12-27T08:10:34.109Z,37.28
2018-12-27T08:13:24.465Z,35.13
2018-12-27T08:16:15.000Z,34.39
2018-12-27T08:19:05.341Z,33.63
2018-12-27T08:21:55.895Z,33.30
2018-12-27T08:24:46.297Z,32.84
2018-12-27T08:27:36.945Z,31.88
2018-12-27T08:30:27.520Z,30.85
2018-12-27T08:33:17.778Z,32.16
2018-12-27T08:36:10.253Z,30.87
2018-12-27T08:39:00.798Z,30.23
2018-12-27T08:41:52.641Z,31.46
2018-12-27T08:44:43.183Z,32.22
2018-12-27T08:47:33.961Z,33.35
2018-12-27T08:50:24.718Z,35.38
2018-12-27T08:53:15.273Z,35.02
2018-12-27T08:56:05.776Z,36.29
2018-12-27T08:58:56.400Z,36.80
2018-12-27T09:01:49.865Z,37.22
2018-12-27T09:04:40.358Z,39.27
2018-12-27T09:07:31.516Z,39.56
2018-12-27T09:10:22.137Z,39.66
2018-12-27T09:13:12.704Z,39.41
2018-12-27T09:16:07.240Z,39.73
2018-12-27T09:18:57.816Z,39.95
2018-12-27T09:21:48.122Z,39.63
2018-12-27T09:24:38.537Z,39.50
2018-12-27T09:27:28.750Z,38.92
2018-12-27T09:30:19.165Z,39.58
2018-12-27T09:33:09.907Z,39.94
2018-12-27T09:36:00.403Z,41.44
2018-12-27T09:38:52.150Z,41.41
2018-12-27T09:41:42.872Z,41.91
2018-12-27T09:44:33.121Z,43.00
2018-12-27T09:47:23.522Z,43.12
2018-12-27T09:50:13.772Z,44.44
2018-12-27T09:53:05.536Z,44.71
2018-12-27T09:55:56.143Z,45.57
2018-12-27T09:58:46.833Z,45.37
2018-12-27T10:01:37.430Z,46.92
2018-12-27T10:04:28.122Z,46.63
2018-12-27T10:07:18.824Z,48.41
2018-12-27T10:10:09.709Z,47.88
2018-12-27T10:13:00.425Z,49.97
2018-12-27T10:15:51.286Z,49.85
2018-12-27T10:18:42.417Z,49.60
2018-12-27T10:21:32.887Z,48.43
2018-12-27T10:24:23.343Z,50.46
2018-12-27T10:27:13.793Z,50.67
2018-12-27T10:30:04.368Z,50.62
2018-12-27T10:32:54.975Z,51.56
2018-12-27T10:35:45.219Z,50.00
2018-12-27T10:38:35.579Z,49.39
2018-12-27T10:41:26.270Z,49.84
2018-12-27T10:44:17.023Z,49.34
2018-12-27T10:47:07.604Z,52.67
2018-12-27T10:49:58.315Z,50.45
2018-12-27T10:52:49.063Z,53.61
2018-12-27T10:55:39.888Z,54.12
2018-12-27T10:58:30.418Z,53.35
2018-12-27T11:01:21.045Z,54.87
2018-12-27T11:04:11.504Z,57.52
2018-12-27T11:07:01.877Z,61.59
2018-12-27T11:09:52.073Z,58.67
2018-12-27T11:12:42.646Z,57.74
2018-12-27T11:15:33.043Z,57.95
2018-12-27T11:18:23.798Z,56.50
2018-12-27T11:21:14.518Z,61.29
2018-12-27T11:24:05.339Z,59.65
2018-12-27T11:26:56.181Z,58.56
2018-12-27T11:29:46.813Z,55.20
2018-12-27T11:32:37.163Z,56.67
2018-12-27T11:35:27.430Z,57.97
2018-12-27T11:38:17.856Z,58.76
2018-12-27T11:41:08.606Z,57.82
2018-12-27T11:43:59.829Z,56.80
2018-12-27T11:46:50.109Z,57.52
2018-12-27T11:49:40.655Z,55.08
2018-12-27T11:52:31.308Z,54.81
2018-12-27T11:55:21.625Z,57.78
2018-12-27T11:58:12.654Z,56.48
2018-12-27T12:01:05.051Z,54.96
2018-12-27T12:03:56.175Z,54.01
2018-12-27T12:06:46.795Z,51.88
2018-12-27T12:09:37.514Z,51.81
2018-12-27T12:12:27.828Z,50.13
2018-12-27T12:15:18.111Z,49.54
2018-12-27T12:18:08.367Z,50.14
2018-12-27T12:20:59.089Z,49.61
2018-12-27T12:23:49.487Z,47.73
2018-12-27T12:26:39.872Z,49.60
2018-12-27T12:29:30.615Z,49.68
2018-12-27T12:32:21.313Z,51.27
2018-12-27T12:35:12.918Z,49.35
2018-12-27T12:38:03.352Z,48.04
2018-12-27T12:40:54.007Z,48.03
2018-12-27T12:43:44.697Z,50.65
2018-12-27T12:46:35.052Z,50.74
2018-12-27T12:49:27.139Z,50.22
2018-12-27T12:52:17.824Z,51.03
2018-12-27T12:55:08.449Z,50.96
2018-12-27T12:57:59.122Z,47.38
2018-12-27T13:00:49.602Z,50.19
2018-12-27T13:03:39.828Z,52.50
2018-12-27T13:06:30.481Z,52.28
2018-12-27T13:09:21.101Z,53.34
2018-12-27T13:12:11.772Z,52.04
2018-12-27T13:15:02.517Z,49.01
2018-12-27T13:17:53.272Z,50.29
2018-12-27T13:20:43.817Z,52.77
2018-12-27T13:23:34.130Z,53.10
2018-12-27T13:26:24.629Z,53.99
2018-12-27T13:29:15.169Z,51.12
2018-12-27T13:32:05.771Z,50.40
2018-12-27T13:34:56.228Z,46.96
2018-12-27T13:37:46.550Z,46.82
2018-12-27T13:40:36.895Z,49.28
2018-12-27T13:43:27.596Z,49.24
2018-12-27T13:46:18.199Z,52.71
2018-12-27T13:49:08.944Z,55.93
2018-12-27T13:51:59.591Z,55.88
2018-12-27T13:54:50.525Z,58.94
2018-12-27T13:57:40.960Z,57.62
2018-12-27T14:00:31.463Z,55.98
2018-12-27T14:03:22.237Z,53.63
2018-12-27T14:06:13.575Z,53.68
2018-12-27T14:09:04.835Z,54.67
2018-12-27T14:11:56.443Z,55.20
2018-12-27T14:14:46.705Z,54.75
2018-12-27T14:17:39.017Z,55.11
2018-12-27T14:20:29.619Z,55.43
2018-12-27T14:23:20.309Z,56.02
2018-12-27T14:26:11.164Z,57.54
2018-12-27T14:29:02.630Z,57.29
2018-12-27T14:31:53.321Z,56.68
2018-12-27T14:34:43.783Z,56.36
2018-12-27T14:37:34.758Z,56.14
2018-12-27T14:40:26.565Z,56.19
2018-12-27T14:43:17.305Z,56.42
2018-12-27T14:46:07.751Z,56.08
2018-12-27T14:48:58.220Z,56.44
2018-12-27T14:51:48.389Z,56.21
2018-12-27T14:54:38.869Z,57.31
2018-12-27T14:57:29.215Z,57.00
2018-12-27T15:00:19.465Z,58.44
2018-12-27T15:03:09.897Z,58.54
2018-12-27T15:06:00.447Z,59.94
2018-12-27T15:08:50.805Z,60.97
2018-12-27T15:11:41.283Z,60.50
2018-12-27T15:14:31.893Z,61.10
2018-12-27T15:17:22.567Z,61.21
2018-12-27T15:20:13.187Z,61.29
2018-12-27T15:23:03.739Z,61.97
2018-12-27T15:25:54.279Z,64.69
2018-12-27T15:28:44.597Z,63.04
2018-12-27T15:31:35.139Z,65.43
2018-12-27T15:34:25.623Z,62.70
2018-12-27T15:37:16.177Z,61.68
2018-12-27T15:40:06.722Z,61.83
2018-12-27T15:42:57.213Z,62.59
2018-12-27T15:45:50.168Z,62.21
2018-12-27T15:48:40.501Z,61.46
2018-12-27T15:51:31.328Z,63.18
2018-12-27T15:54:22.125Z,61.13
2018-12-27T15:57:13.509Z,61.35
2018-12-27T16:00:04.179Z,60.61
2018-12-27T16:02:54.682Z,59.69
2018-12-27T16:05:44.955Z,59.25
2018-12-27T16:08:35.232Z,60.73
2018-12-27T16:11:25.570Z,61.15
2018-12-27T16:14:16.546Z,59.57
2018-12-27T16:17:07.189Z,62.04
2018-12-27T16:19:57.893Z,60.95
2018-12-27T16:22:50.524Z,60.67
2018-12-27T16:25:41.104Z,58.82
2018-12-27T16:28:31.984Z,59.72
2018-12-27T16:31:23.436Z,59.11
2018-12-27T16:34:13.776Z,59.74
2018-12-27T16:37:09.029Z,55.23
2018-12-27T16:39:56.599Z,54.58
2018-12-27T16:42:47.456Z,54.69
2018-12-27T16:45:38.198Z,54.71
2018-12-27T16:48:28.763Z,54.16
2018-12-27T16:51:19.087Z,54.14
2018-12-27T16:54:09.794Z,54.89
2018-12-27T16:56:59.996Z,55.16
2018-12-27T16:59:50.702Z,55.49
2018-12-27T17:02:41.430Z,54.74
2018-12-27T17:05:32.104Z,55.03
2018-12-27T17:08:22.724Z,55.63
2018-12-27T17:11:13.083Z,57.04
2018-12-27T17:14:03.624Z,58.40
2018-12-27T17:16:53.901Z,59.85
2018-12-27T17:19:45.480Z,60.32
2018-12-27T17:22:36.049Z,61.92
2018-12-27T17:25:26.608Z,63.80
2018-12-27T17:28:17.067Z,64.88
2018-12-27T17:31:07.713Z,69.11
2018-12-27T17:33:58.394Z,69.75
2018-12-27T17:36:49.117Z,71.85
2018-12-27T17:39:39.777Z,73.26
2018-12-27T17:42:30.297Z,72.31
2018-12-27T17:45:20.654Z,72.76
2018-12-27T17:48:11.098Z,72.85
2018-12-27T17:51:03.701Z,74.07
2018-12-27T17:53:54.380Z,72.76
2018-12-27T17:56:45.028Z,71.88
2018-12-27T17:59:35.686Z,68.93
2018-12-27T18:02:26.273Z,72.46
2018-12-27T18:05:17.051Z,72.22
2018-12-27T18:08:07.575Z,70.76
2018-12-27T18:10:57.782Z,70.47
2018-12-27T18:13:49.571Z,71.29
2018-12-27T18:16:39.990Z,68.36
2018-12-27T18:19:30.629Z,69.38
2018-12-27T18:22:21.269Z,71.63
2018-12-27T18:25:11.958Z,72.46
2018-12-27T18:28:02.653Z,71.81
2018-12-27T18:30:53.414Z,72.33
2018-12-27T18:33:44.023Z,71.21
2018-12-27T18:36:34.654Z,69.52
2018-12-27T18:39:25.148Z,69.49
2018-12-27T18:42:15.472Z,69.96
2018-12-27T18:45:06.295Z,70.44
2018-12-27T18:47:56.771Z,71.01
2018-12-27T18:50:47.496Z,71.50
2018-12-27T18:53:37.920Z,69.17
2018-12-27T18:56:28.509Z,66.98
2018-12-27T18:59:20.231Z,62.85
2018-12-27T19:02:10.843Z,61.69
2018-12-27T19:05:01.419Z,61.95
2018-12-27T19:07:52.207Z,60.40
2018-12-27T19:10:42.886Z,56.60
2018-12-27T19:13:33.586Z,52.95
2018-12-27T19:16:23.927Z,52.15
2018-12-27T19:19:14.756Z,52.94
2018-12-27T19:22:33.833Z,52.67
2018-12-27T19:25:24.048Z,53.03
2018-12-27T19:28:14.741Z,54.62
2018-12-27T19:31:08.922Z,55.83
2018-12-27T19:33:59.469Z,55.44
2018-12-27T19:36:50.250Z,54.04
2018-12-27T19:39:40.936Z,53.38
2018-12-27T19:42:31.573Z,53.84
2018-12-27T19:45:21.933Z,54.58
2018-12-27T19:48:12.523Z,54.23
2018-12-27T19:51:04.923Z,54.68
2018-12-27T19:53:55.667Z,54.25
2018-12-27T19:56:46.257Z,54.69
2018-12-27T19:59:36.928Z,56.17
2018-12-27T20:02:27.637Z,55.46
2018-12-27T20:05:18.272Z,56.10
2018-12-27T20:08:08.576Z,56.93
2018-12-27T20:10:59.121Z,57.81
2018-12-27T20:13:49.612Z,57.66
2018-12-27T20:16:40.039Z,58.40
2018-12-27T20:19:30.525Z,59.53
2018-12-27T20:22:21.333Z,60.83
2018-12-27T20:25:11.898Z,62.18
2018-12-27T20:28:02.599Z,60.87
2018-12-27T20:30:53.134Z,61.84
2018-12-27T20:33:43.586Z,59.34
2018-12-27T20:36:33.993Z,59.83
2018-12-27T20:39:24.690Z,60.96
2018-12-27T20:42:15.216Z,62.47
2018-12-27T20:45:05.931Z,61.76
2018-12-27T20:47:56.582Z,63.79
2018-12-27T20:50:47.184Z,65.46
2018-12-27T20:53:37.908Z,66.94
2018-12-27T20:56:28.544Z,67.05
2018-12-27T20:59:19.281Z,67.87
2018-12-27T21:02:10.240Z,67.36
2018-12-27T21:05:00.630Z,67.47
2018-12-27T21:07:51.170Z,66.75
2018-12-27T21:10:41.638Z,66.70
2018-12-27T21:13:32.025Z,65.22
2018-12-27T21:16:22.704Z,65.34
2018-12-27T21:19:13.300Z,63.54
2018-12-27T21:22:03.775Z,61.11
2018-12-27T21:24:54.263Z,62.55
2018-12-27T21:27:45.148Z,63.91
2018-12-27T21:30:35.613Z,65.97
2018-12-27T21:33:26.427Z,63.75
2018-12-27T21:36:18.198Z,64.92
2018-12-27T21:39:09.341Z,65.37
2018-12-27T21:42:02.498Z,66.30
2018-12-27T21:44:53.519Z,64.50
2018-12-27T21:47:43.892Z,61.33
2018-12-27T21:50:34.650Z,60.30
2018-12-27T21:53:25.347Z,59.27
2018-12-27T21:56:15.802Z,59.83
2018-12-27T21:59:06.503Z,59.86
2018-12-27T22:01:57.122Z,60.02
2018-12-27T22:04:47.397Z,58.25
2018-12-27T22:07:37.975Z,56.52
2018-12-27T22:10:28.316Z,57.79
2018-12-27T22:13:18.617Z,55.91
2018-12-27T22:16:09.301Z,54.41
2018-12-27T22:18:59.917Z,54.40
2018-12-27T22:21:50.464Z,54.53
2018-12-27T22:24:40.723Z,55.19
2018-12-27T22:27:31.006Z,55.45
2018-12-27T22:30:21.445Z,54.94
2018-12-27T22:33:12.025Z,54.77
2018-12-27T22:36:04.340Z,53.39
2018-12-27T22:38:55.257Z,52.90
2018-12-27T22:41:46.038Z,52.95
2018-12-27T22:44:36.227Z,52.15
2018-12-27T22:47:26.813Z,53.04
2018-12-27T22:50:17.573Z,53.51
2018-12-27T22:53:08.168Z,53.56
2018-12-27T22:55:59.127Z,54.71
2018-12-27T22:58:49.838Z,55.99
2018-12-27T23:01:40.516Z,56.72
2018-12-27T23:04:31.224Z,57.41
2018-12-27T23:07:23.940Z,57.23
2018-12-27T23:10:14.682Z,58.23
2018-12-27T23:13:05.412Z,58.74
2018-12-27T23:15:55.998Z,58.98
2018-12-27T23:18:46.438Z,59.21
2018-12-27T23:21:37.182Z,60.55
2018-12-27T23:24:27.396Z,60.57
2018-12-27T23:27:17.911Z,63.10
2018-12-27T23:30:09.179Z,67.72
2018-12-27T23:32:59.923Z,69.12
2018-12-27T23:35:50.408Z,70.82
2018-12-27T23:38:41.188Z,74.25
2018-12-27T23:41:32.050Z,73.95
2018-12-27T23:44:22.935Z,73.93
2018-12-27T23:47:13.094Z,74.76
2018-12-27T23:50:03.665Z,76.19
2018-12-27T23:52:54.074Z,79.10
2018-12-27T23:55:44.408Z,79.36
2018-12-27T23:58:34.701Z,80.09
